ETIC

Grafenwohr Army Air Field Airport

Germany
METAR ETIC 210456Z AUTO 00000KT 9999 FEW060 14/13 A3014 RMK AO2 SLP193 T01400132 TSNO $
Observed Flight Rules
Aug-21 @ 04:56 UTC (9 hours ago) Visual Flight Rules
Visibility Clouds
10,000+ meters
  • Few at 6,000' AGL
Temperatures Readings
Current 14°C / 57°F
Dewpoint 13°C / 55°F
Humidity 94%
Altimeter 30.14" Hg
Pressure 1019.3 hPa
Elevation 415
METAR ETIC 210456Z AUTO 00000KT 9999 FEW060 14/13 A3014 RMK AO2 SLP193 T01400132 TSNO $
Observed Flight Rules
Aug-21 @ 04:56 UTC
(9 hours ago)
VFR
Clouds
  • Few at 6,000' AGL
Temperature Dewpoint
14°C / 57°F 13°C / 55°F
Humidity Altimeter Pressure
94% 30.14" Hg 1019.3 hPa